sensor_id;sensor_type;location;lat;lon;timestamp;temperature;humidity
16198;DHT22;8206;51.440;6.914;2023-09-08T00:00:46;18.60;99.90
16198;DHT22;8206;51.440;6.914;2023-09-08T00:03:13;18.50;99.90
16198;DHT22;8206;51.440;6.914;2023-09-08T00:05:40;18.50;99.90
16198;DHT22;8206;51.440;6.914;2023-09-08T00:08:06;18.40;99.90
16198;DHT22;8206;51.440;6.914;2023-09-08T00:10:33;18.40;99.90
16198;DHT22;8206;51.440;6.914;2023-09-08T00:13:01;18.30;99.90
16198;DHT22;8206;51.440;6.914;2023-09-08T00:15:28;18.30;99.90
16198;DHT22;8206;51.440;6.914;2023-09-08T00:17:54;18.20;99.90
16198;DHT22;8206;51.440;6.914;2023-09-08T00:20:22;18.20;99.90
16198;DHT22;8206;51.440;6.914;2023-09-08T00:22:49;18.10;99.90
16198;DHT22;8206;51.440;6.914;2023-09-08T00:25:16;18.10;99.90
16198;DHT22;8206;51.440;6.914;2023-09-08T00:27:42;18.00;99.90
16198;DHT22;8206;51.440;6.914;2023-09-08T00:30:11;18.00;99.90
16198;DHT22;8206;51.440;6.914;2023-09-08T00:32:38;18.00;99.90
16198;DHT22;8206;51.440;6.914;2023-09-08T00:35:06;18.00;99.90
16198;DHT22;8206;51.440;6.914;2023-09-08T00:37:33;18.00;99.90
16198;DHT22;8206;51.440;6.914;2023-09-08T00:40:00;17.90;99.90
16198;DHT22;8206;51.440;6.914;2023-09-08T00:42:27;17.90;99.90
16198;DHT22;8206;51.440;6.914;2023-09-08T00:44:53;17.80;99.90
16198;DHT22;8206;51.440;6.914;2023-09-08T00:47:21;17.90;99.90
16198;DHT22;8206;51.440;6.914;2023-09-08T00:49:48;17.80;99.90
16198;DHT22;8206;51.440;6.914;2023-09-08T00:52:16;17.80;99.90
16198;DHT22;8206;51.440;6.914;2023-09-08T00:54:43;17.80;99.90
16198;DHT22;8206;51.440;6.914;2023-09-08T00:57:10;17.80;99.90
16198;DHT22;8206;51.440;6.914;2023-09-08T00:59:37;17.70;99.90
16198;DHT22;8206;51.440;6.914;2023-09-08T01:02:04;17.60;99.90
16198;DHT22;8206;51.440;6.914;2023-09-08T01:04:32;17.60;99.90
16198;DHT22;8206;51.440;6.914;2023-09-08T01:07:00;17.60;99.90
16198;DHT22;8206;51.440;6.914;2023-09-08T01:09:28;17.60;99.90
16198;DHT22;8206;51.440;6.914;2023-09-08T01:11:55;17.60;99.90
16198;DHT22;8206;51.440;6.914;2023-09-08T01:14:27;17.60;99.90
16198;DHT22;8206;51.440;6.914;2023-09-08T01:16:53;17.50;99.90
16198;DHT22;8206;51.440;6.914;2023-09-08T01:19:21;17.50;99.90
16198;DHT22;8206;51.440;6.914;2023-09-08T01:22:03;17.50;99.90
16198;DHT22;8206;51.440;6.914;2023-09-08T01:27:37;17.40;99.90
16198;DHT22;8206;51.440;6.914;2023-09-08T01:30:05;17.40;99.90
16198;DHT22;8206;51.440;6.914;2023-09-08T01:32:34;17.40;99.90
16198;DHT22;8206;51.440;6.914;2023-09-08T01:35:01;17.30;99.90
16198;DHT22;8206;51.440;6.914;2023-09-08T01:37:27;17.30;99.90
16198;DHT22;8206;51.440;6.914;2023-09-08T01:39:54;17.30;99.90
16198;DHT22;8206;51.440;6.914;2023-09-08T01:42:21;17.20;99.90
16198;DHT22;8206;51.440;6.914;2023-09-08T01:44:49;17.20;99.90
16198;DHT22;8206;51.440;6.914;2023-09-08T01:47:15;17.20;99.90
16198;DHT22;8206;51.440;6.914;2023-09-08T01:49:42;17.20;99.90
16198;DHT22;8206;51.440;6.914;2023-09-08T01:52:09;17.10;99.90
16198;DHT22;8206;51.440;6.914;2023-09-08T01:54:35;17.10;99.90
16198;DHT22;8206;51.440;6.914;2023-09-08T01:57:02;17.10;99.90
16198;DHT22;8206;51.440;6.914;2023-09-08T01:59:29;17.00;99.90
16198;DHT22;8206;51.440;6.914;2023-09-08T02:01:57;17.10;99.90
16198;DHT22;8206;51.440;6.914;2023-09-08T02:04:24;17.10;99.90
16198;DHT22;8206;51.440;6.914;2023-09-08T02:06:50;17.10;99.90
16198;DHT22;8206;51.440;6.914;2023-09-08T02:09:17;17.10;99.90
16198;DHT22;8206;51.440;6.914;2023-09-08T02:11:44;17.00;99.90
16198;DHT22;8206;51.440;6.914;2023-09-08T02:14:10;17.00;99.90
16198;DHT22;8206;51.440;6.914;2023-09-08T02:16:37;16.90;99.90
16198;DHT22;8206;51.440;6.914;2023-09-08T02:19:06;16.80;99.90
16198;DHT22;8206;51.440;6.914;2023-09-08T02:21:33;16.80;99.90
16198;DHT22;8206;51.440;6.914;2023-09-08T02:23:59;16.80;99.90
16198;DHT22;8206;51.440;6.914;2023-09-08T02:26:26;16.80;99.90
16198;DHT22;8206;51.440;6.914;2023-09-08T02:28:53;16.80;99.90
16198;DHT22;8206;51.440;6.914;2023-09-08T02:31:19;16.80;99.90
16198;DHT22;8206;51.440;6.914;2023-09-08T02:33:46;16.80;99.90
16198;DHT22;8206;51.440;6.914;2023-09-08T02:36:14;16.80;99.90
16198;DHT22;8206;51.440;6.914;2023-09-08T02:38:41;16.70;99.90
16198;DHT22;8206;51.440;6.914;2023-09-08T02:41:07;16.70;99.90
16198;DHT22;8206;51.440;6.914;2023-09-08T02:43:34;16.70;99.90
16198;DHT22;8206;51.440;6.914;2023-09-08T02:46:01;16.60;99.90
16198;DHT22;8206;51.440;6.914;2023-09-08T02:48:27;16.60;99.90
16198;DHT22;8206;51.440;6.914;2023-09-08T02:50:54;16.60;99.90
16198;DHT22;8206;51.440;6.914;2023-09-08T02:53:23;16.60;99.90
16198;DHT22;8206;51.440;6.914;2023-09-08T02:55:54;16.60;99.90
16198;DHT22;8206;51.440;6.914;2023-09-08T02:58:20;16.50;99.90
16198;DHT22;8206;51.440;6.914;2023-09-08T03:00:47;16.50;99.90
16198;DHT22;8206;51.440;6.914;2023-09-08T03:03:14;16.50;99.90
16198;DHT22;8206;51.440;6.914;2023-09-08T03:05:41;16.50;99.90
16198;DHT22;8206;51.440;6.914;2023-09-08T03:08:07;16.50;99.90
16198;DHT22;8206;51.440;6.914;2023-09-08T03:10:35;16.50;99.90
16198;DHT22;8206;51.440;6.914;2023-09-08T03:13:02;16.50;99.90
16198;DHT22;8206;51.440;6.914;2023-09-08T03:15:29;16.50;99.90
16198;DHT22;8206;51.440;6.914;2023-09-08T03:17:56;16.50;99.90
16198;DHT22;8206;51.440;6.914;2023-09-08T03:20:23;16.40;99.90
16198;DHT22;8206;51.440;6.914;2023-09-08T03:22:51;16.40;99.90
16198;DHT22;8206;51.440;6.914;2023-09-08T03:25:18;16.40;99.90
16198;DHT22;8206;51.440;6.914;2023-09-08T03:27:46;16.40;99.90
16198;DHT22;8206;51.440;6.914;2023-09-08T03:30:13;16.30;99.90
16198;DHT22;8206;51.440;6.914;2023-09-08T03:32:40;16.30;99.90
16198;DHT22;8206;51.440;6.914;2023-09-08T03:35:07;16.30;99.90
16198;DHT22;8206;51.440;6.914;2023-09-08T03:37:35;16.30;99.90
16198;DHT22;8206;51.440;6.914;2023-09-08T03:40:02;16.30;99.90
16198;DHT22;8206;51.440;6.914;2023-09-08T03:42:31;16.30;99.90
16198;DHT22;8206;51.440;6.914;2023-09-08T03:44:59;16.40;99.90
16198;DHT22;8206;51.440;6.914;2023-09-08T03:47:25;16.40;99.90
16198;DHT22;8206;51.440;6.914;2023-09-08T03:49:52;16.40;99.90
16198;DHT22;8206;51.440;6.914;2023-09-08T03:52:18;16.40;99.90
16198;DHT22;8206;51.440;6.914;2023-09-08T03:54:46;16.30;99.90
16198;DHT22;8206;51.440;6.914;2023-09-08T03:57:12;16.30;99.90
16198;DHT22;8206;51.440;6.914;2023-09-08T03:59:39;16.20;99.90
16198;DHT22;8206;51.440;6.914;2023-09-08T04:02:07;16.20;99.90
16198;DHT22;8206;51.440;6.914;2023-09-08T04:04:34;16.20;99.90
16198;DHT22;8206;51.440;6.914;2023-09-08T04:07:00;16.10;99.90
16198;DHT22;8206;51.440;6.914;2023-09-08T04:09:27;16.00;99.90
16198;DHT22;8206;51.440;6.914;2023-09-08T04:11:54;16.00;99.90
16198;DHT22;8206;51.440;6.914;2023-09-08T04:14:21;16.00;99.90
16198;DHT22;8206;51.440;6.914;2023-09-08T04:16:52;16.00;99.90
16198;DHT22;8206;51.440;6.914;2023-09-08T04:19:20;16.00;99.90
16198;DHT22;8206;51.440;6.914;2023-09-08T04:21:47;16.00;99.90
16198;DHT22;8206;51.440;6.914;2023-09-08T04:24:13;16.00;99.90
16198;DHT22;8206;51.440;6.914;2023-09-08T04:26:40;15.90;99.90
16198;DHT22;8206;51.440;6.914;2023-09-08T04:29:07;15.90;99.90
16198;DHT22;8206;51.440;6.914;2023-09-08T04:31:33;15.90;99.90
16198;DHT22;8206;51.440;6.914;2023-09-08T04:34:00;15.90;99.90
16198;DHT22;8206;51.440;6.914;2023-09-08T04:36:28;15.90;99.90
16198;DHT22;8206;51.440;6.914;2023-09-08T04:38:55;15.80;99.90
16198;DHT22;8206;51.440;6.914;2023-09-08T04:41:22;15.80;99.90
16198;DHT22;8206;51.440;6.914;2023-09-08T04:43:49;15.80;99.90
16198;DHT22;8206;51.440;6.914;2023-09-08T04:46:15;15.80;99.90
16198;DHT22;8206;51.440;6.914;2023-09-08T04:48:42;15.80;99.90
16198;DHT22;8206;51.440;6.914;2023-09-08T04:51:09;15.70;99.90
16198;DHT22;8206;51.440;6.914;2023-09-08T04:53:37;15.70;99.90
16198;DHT22;8206;51.440;6.914;2023-09-08T04:56:04;15.80;99.90
16198;DHT22;8206;51.440;6.914;2023-09-08T04:58:30;15.80;99.90
16198;DHT22;8206;51.440;6.914;2023-09-08T05:00:57;15.90;99.90
16198;DHT22;8206;51.440;6.914;2023-09-08T05:03:24;15.90;99.90
16198;DHT22;8206;51.440;6.914;2023-09-08T05:05:51;15.90;99.90
16198;DHT22;8206;51.440;6.914;2023-09-08T05:08:18;15.90;99.90
16198;DHT22;8206;51.440;6.914;2023-09-08T05:10:46;16.00;99.90
16198;DHT22;8206;51.440;6.914;2023-09-08T05:13:12;16.00;99.90
16198;DHT22;8206;51.440;6.914;2023-09-08T05:15:39;16.00;99.90
16198;DHT22;8206;51.440;6.914;2023-09-08T05:18:08;16.00;99.90
16198;DHT22;8206;51.440;6.914;2023-09-08T05:20:34;16.10;99.90
16198;DHT22;8206;51.440;6.914;2023-09-08T05:23:01;16.10;99.90
16198;DHT22;8206;51.440;6.914;2023-09-08T05:25:28;16.20;99.90
16198;DHT22;8206;51.440;6.914;2023-09-08T05:27:56;16.20;99.90
16198;DHT22;8206;51.440;6.914;2023-09-08T05:30:23;16.20;99.90
16198;DHT22;8206;51.440;6.914;2023-09-08T05:32:49;16.30;99.90
16198;DHT22;8206;51.440;6.914;2023-09-08T05:35:16;16.40;99.90
16198;DHT22;8206;51.440;6.914;2023-09-08T05:37:43;16.50;99.90
16198;DHT22;8206;51.440;6.914;2023-09-08T05:40:10;16.60;99.90
16198;DHT22;8206;51.440;6.914;2023-09-08T05:42:37;16.60;99.90
16198;DHT22;8206;51.440;6.914;2023-09-08T05:45:06;16.70;99.90
16198;DHT22;8206;51.440;6.914;2023-09-08T05:47:32;16.80;99.90
16198;DHT22;8206;51.440;6.914;2023-09-08T05:50:01;16.90;99.90
16198;DHT22;8206;51.440;6.914;2023-09-08T05:52:28;17.00;99.90
16198;DHT22;8206;51.440;6.914;2023-09-08T05:54:54;17.10;99.90
16198;DHT22;8206;51.440;6.914;2023-09-08T05:57:21;17.20;99.90
16198;DHT22;8206;51.440;6.914;2023-09-08T05:59:48;17.30;99.90
16198;DHT22;8206;51.440;6.914;2023-09-08T06:02:16;17.40;99.90
16198;DHT22;8206;51.440;6.914;2023-09-08T06:04:42;17.50;99.90
16198;DHT22;8206;51.440;6.914;2023-09-08T06:07:09;17.60;99.90
16198;DHT22;8206;51.440;6.914;2023-09-08T06:09:36;17.70;99.90
16198;DHT22;8206;51.440;6.914;2023-09-08T06:12:03;17.80;99.90
16198;DHT22;8206;51.440;6.914;2023-09-08T06:14:30;18.00;99.90
16198;DHT22;8206;51.440;6.914;2023-09-08T06:16:57;18.10;99.90
16198;DHT22;8206;51.440;6.914;2023-09-08T06:19:25;18.10;99.90
16198;DHT22;8206;51.440;6.914;2023-09-08T06:21:51;18.20;99.90
16198;DHT22;8206;51.440;6.914;2023-09-08T06:24:18;18.30;99.90
16198;DHT22;8206;51.440;6.914;2023-09-08T06:26:45;18.40;99.90
16198;DHT22;8206;51.440;6.914;2023-09-08T06:29:12;18.50;99.90
16198;DHT22;8206;51.440;6.914;2023-09-08T06:31:38;18.60;99.90
16198;DHT22;8206;51.440;6.914;2023-09-08T06:34:05;18.70;99.90
16198;DHT22;8206;51.440;6.914;2023-09-08T06:36:33;18.80;99.90
16198;DHT22;8206;51.440;6.914;2023-09-08T06:39:00;18.80;99.90
16198;DHT22;8206;51.440;6.914;2023-09-08T06:41:26;19.00;99.90
16198;DHT22;8206;51.440;6.914;2023-09-08T06:43:54;19.10;99.90
16198;DHT22;8206;51.440;6.914;2023-09-08T06:46:20;19.20;99.90
16198;DHT22;8206;51.440;6.914;2023-09-08T06:48:47;19.40;99.90
16198;DHT22;8206;51.440;6.914;2023-09-08T06:51:14;19.70;99.90
16198;DHT22;8206;51.440;6.914;2023-09-08T06:53:42;19.80;99.90
16198;DHT22;8206;51.440;6.914;2023-09-08T06:56:09;19.90;99.90
16198;DHT22;8206;51.440;6.914;2023-09-08T06:58:36;20.00;99.90
16198;DHT22;8206;51.440;6.914;2023-09-08T07:01:03;20.20;99.90
16198;DHT22;8206;51.440;6.914;2023-09-08T07:03:29;20.20;99.90
16198;DHT22;8206;51.440;6.914;2023-09-08T07:06:02;20.40;99.90
16198;DHT22;8206;51.440;6.914;2023-09-08T07:08:29;20.50;99.90
16198;DHT22;8206;51.440;6.914;2023-09-08T07:10:57;20.70;99.90
16198;DHT22;8206;51.440;6.914;2023-09-08T07:13:23;20.80;99.90
16198;DHT22;8206;51.440;6.914;2023-09-08T07:15:50;20.90;99.90
16198;DHT22;8206;51.440;6.914;2023-09-08T07:18:17;21.10;99.90
16198;DHT22;8206;51.440;6.914;2023-09-08T07:20:46;21.20;99.90
16198;DHT22;8206;51.440;6.914;2023-09-08T07:23:13;21.20;99.90
16198;DHT22;8206;51.440;6.914;2023-09-08T07:25:40;21.40;99.90
16198;DHT22;8206;51.440;6.914;2023-09-08T07:28:08;21.60;99.90
16198;DHT22;8206;51.440;6.914;2023-09-08T07:30:33;21.70;99.90
16198;DHT22;8206;51.440;6.914;2023-09-08T07:33:00;21.80;99.90
16198;DHT22;8206;51.440;6.914;2023-09-08T07:35:26;22.00;99.90
16198;DHT22;8206;51.440;6.914;2023-09-08T07:37:53;22.10;99.90
16198;DHT22;8206;51.440;6.914;2023-09-08T07:40:20;22.20;99.90
16198;DHT22;8206;51.440;6.914;2023-09-08T07:42:47;22.40;99.90
16198;DHT22;8206;51.440;6.914;2023-09-08T07:45:15;22.50;99.90
16198;DHT22;8206;51.440;6.914;2023-09-08T07:47:42;22.70;99.90
16198;DHT22;8206;51.440;6.914;2023-09-08T07:50:18;22.90;99.90
16198;DHT22;8206;51.440;6.914;2023-09-08T07:52:46;23.00;99.90
16198;DHT22;8206;51.440;6.914;2023-09-08T07:55:12;23.10;99.90
16198;DHT22;8206;51.440;6.914;2023-09-08T07:57:40;23.20;99.90
16198;DHT22;8206;51.440;6.914;2023-09-08T08:00:08;23.20;99.90
16198;DHT22;8206;51.440;6.914;2023-09-08T08:05:05;23.50;99.90
16198;DHT22;8206;51.440;6.914;2023-09-08T08:07:33;23.50;99.90
16198;DHT22;8206;51.440;6.914;2023-09-08T08:09:59;23.50;99.90
16198;DHT22;8206;51.440;6.914;2023-09-08T08:12:26;23.60;99.90
16198;DHT22;8206;51.440;6.914;2023-09-08T08:14:53;23.70;99.90
16198;DHT22;8206;51.440;6.914;2023-09-08T08:17:20;23.70;99.90
16198;DHT22;8206;51.440;6.914;2023-09-08T08:19:48;23.90;99.90
16198;DHT22;8206;51.440;6.914;2023-09-08T08:22:15;23.90;99.90
16198;DHT22;8206;51.440;6.914;2023-09-08T08:24:42;24.00;99.90
16198;DHT22;8206;51.440;6.914;2023-09-08T08:27:08;24.00;99.90
16198;DHT22;8206;51.440;6.914;2023-09-08T08:29:35;24.10;99.90
16198;DHT22;8206;51.440;6.914;2023-09-08T08:32:02;24.10;99.90
16198;DHT22;8206;51.440;6.914;2023-09-08T08:34:28;24.20;99.90
16198;DHT22;8206;51.440;6.914;2023-09-08T08:36:56;24.20;99.90
16198;DHT22;8206;51.440;6.914;2023-09-08T08:39:23;24.30;99.90
16198;DHT22;8206;51.440;6.914;2023-09-08T08:41:50;24.40;99.90
16198;DHT22;8206;51.440;6.914;2023-09-08T08:44:17;24.40;99.90
16198;DHT22;8206;51.440;6.914;2023-09-08T08:46:46;24.50;99.90
16198;DHT22;8206;51.440;6.914;2023-09-08T08:49:15;24.60;99.90
16198;DHT22;8206;51.440;6.914;2023-09-08T08:51:42;24.70;99.90
16198;DHT22;8206;51.440;6.914;2023-09-08T08:54:12;24.80;99.90
16198;DHT22;8206;51.440;6.914;2023-09-08T08:56:40;24.80;99.90
16198;DHT22;8206;51.440;6.914;2023-09-08T08:59:08;25.00;99.90
16198;DHT22;8206;51.440;6.914;2023-09-08T09:01:35;25.10;99.90
16198;DHT22;8206;51.440;6.914;2023-09-08T09:04:05;25.30;99.90
16198;DHT22;8206;51.440;6.914;2023-09-08T09:06:32;25.30;99.90
16198;DHT22;8206;51.440;6.914;2023-09-08T09:08:59;25.40;99.90
16198;DHT22;8206;51.440;6.914;2023-09-08T09:11:27;25.50;99.90
16198;DHT22;8206;51.440;6.914;2023-09-08T09:13:54;25.50;99.90
16198;DHT22;8206;51.440;6.914;2023-09-08T09:16:21;25.60;99.90
16198;DHT22;8206;51.440;6.914;2023-09-08T09:18:55;25.60;99.90
16198;DHT22;8206;51.440;6.914;2023-09-08T09:21:23;25.80;99.90
16198;DHT22;8206;51.440;6.914;2023-09-08T09:23:49;25.80;99.90
16198;DHT22;8206;51.440;6.914;2023-09-08T09:26:23;25.80;99.90
16198;DHT22;8206;51.440;6.914;2023-09-08T09:28:52;25.90;99.90
16198;DHT22;8206;51.440;6.914;2023-09-08T09:31:23;26.00;99.90
16198;DHT22;8206;51.440;6.914;2023-09-08T09:34:01;26.10;99.90
16198;DHT22;8206;51.440;6.914;2023-09-08T09:36:29;26.20;99.90
16198;DHT22;8206;51.440;6.914;2023-09-08T09:38:58;26.30;99.90
16198;DHT22;8206;51.440;6.914;2023-09-08T09:41:26;26.30;99.90
16198;DHT22;8206;51.440;6.914;2023-09-08T09:43:55;26.40;99.90
16198;DHT22;8206;51.440;6.914;2023-09-08T09:46:22;26.50;99.90
16198;DHT22;8206;51.440;6.914;2023-09-08T09:48:51;26.50;99.90
16198;DHT22;8206;51.440;6.914;2023-09-08T09:51:19;26.70;99.90
16198;DHT22;8206;51.440;6.914;2023-09-08T09:53:46;26.60;99.90
16198;DHT22;8206;51.440;6.914;2023-09-08T09:56:13;26.70;99.90
16198;DHT22;8206;51.440;6.914;2023-09-08T09:58:42;26.70;99.90
16198;DHT22;8206;51.440;6.914;2023-09-08T10:01:10;26.70;99.90
16198;DHT22;8206;51.440;6.914;2023-09-08T10:03:38;26.70;99.90
16198;DHT22;8206;51.440;6.914;2023-09-08T10:06:05;26.70;99.90
16198;DHT22;8206;51.440;6.914;2023-09-08T10:08:34;26.80;99.90
16198;DHT22;8206;51.440;6.914;2023-09-08T10:11:06;26.80;99.90
16198;DHT22;8206;51.440;6.914;2023-09-08T10:13:39;27.00;99.90
16198;DHT22;8206;51.440;6.914;2023-09-08T10:16:13;26.90;99.90
16198;DHT22;8206;51.440;6.914;2023-09-08T10:18:44;27.00;99.90
16198;DHT22;8206;51.440;6.914;2023-09-08T10:21:12;27.10;99.90
16198;DHT22;8206;51.440;6.914;2023-09-08T10:23:41;27.20;99.90
16198;DHT22;8206;51.440;6.914;2023-09-08T10:26:11;27.30;99.90
16198;DHT22;8206;51.440;6.914;2023-09-08T10:28:38;27.40;99.90
16198;DHT22;8206;51.440;6.914;2023-09-08T10:31:05;27.40;99.90
16198;DHT22;8206;51.440;6.914;2023-09-08T10:33:34;27.30;99.90
16198;DHT22;8206;51.440;6.914;2023-09-08T10:36:02;27.30;99.90
16198;DHT22;8206;51.440;6.914;2023-09-08T10:38:32;27.30;99.90
16198;DHT22;8206;51.440;6.914;2023-09-08T10:41:25;27.30;99.90
16198;DHT22;8206;51.440;6.914;2023-09-08T10:43:55;27.40;99.90
16198;DHT22;8206;51.440;6.914;2023-09-08T10:46:23;27.50;99.90
16198;DHT22;8206;51.440;6.914;2023-09-08T10:48:53;27.50;99.90
16198;DHT22;8206;51.440;6.914;2023-09-08T10:51:20;27.60;99.90
16198;DHT22;8206;51.440;6.914;2023-09-08T10:53:48;27.60;99.90
16198;DHT22;8206;51.440;6.914;2023-09-08T10:56:16;27.60;99.90
16198;DHT22;8206;51.440;6.914;2023-09-08T10:58:43;27.80;99.90
16198;DHT22;8206;51.440;6.914;2023-09-08T11:01:16;27.80;99.90
16198;DHT22;8206;51.440;6.914;2023-09-08T11:03:45;27.80;99.90
16198;DHT22;8206;51.440;6.914;2023-09-08T11:06:17;27.80;99.90
16198;DHT22;8206;51.440;6.914;2023-09-08T11:08:45;27.90;99.90
16198;DHT22;8206;51.440;6.914;2023-09-08T11:11:13;27.90;99.90
16198;DHT22;8206;51.440;6.914;2023-09-08T11:13:40;27.90;99.90
16198;DHT22;8206;51.440;6.914;2023-09-08T11:16:07;27.90;99.90
16198;DHT22;8206;51.440;6.914;2023-09-08T11:18:35;28.00;99.90
16198;DHT22;8206;51.440;6.914;2023-09-08T11:21:03;27.90;99.90
16198;DHT22;8206;51.440;6.914;2023-09-08T11:23:31;28.00;99.90
16198;DHT22;8206;51.440;6.914;2023-09-08T11:25:59;28.10;99.90
16198;DHT22;8206;51.440;6.914;2023-09-08T11:28:27;28.20;99.90
16198;DHT22;8206;51.440;6.914;2023-09-08T11:30:54;28.20;99.90
16198;DHT22;8206;51.440;6.914;2023-09-08T11:33:23;28.20;99.90
16198;DHT22;8206;51.440;6.914;2023-09-08T11:35:51;28.20;99.90
16198;DHT22;8206;51.440;6.914;2023-09-08T11:38:18;28.20;99.90
16198;DHT22;8206;51.440;6.914;2023-09-08T11:40:46;28.20;99.90
16198;DHT22;8206;51.440;6.914;2023-09-08T11:43:13;28.20;99.90
16198;DHT22;8206;51.440;6.914;2023-09-08T11:45:43;28.20;99.90
16198;DHT22;8206;51.440;6.914;2023-09-08T11:48:10;28.20;99.90
16198;DHT22;8206;51.440;6.914;2023-09-08T11:50:36;28.20;99.90
16198;DHT22;8206;51.440;6.914;2023-09-08T11:53:03;28.20;99.90
16198;DHT22;8206;51.440;6.914;2023-09-08T11:55:31;28.30;99.90
16198;DHT22;8206;51.440;6.914;2023-09-08T11:57:59;28.40;99.90
16198;DHT22;8206;51.440;6.914;2023-09-08T12:00:27;28.40;99.90
16198;DHT22;8206;51.440;6.914;2023-09-08T12:02:54;28.40;99.90
16198;DHT22;8206;51.440;6.914;2023-09-08T12:05:22;28.40;99.90
16198;DHT22;8206;51.440;6.914;2023-09-08T12:07:50;28.50;99.90
16198;DHT22;8206;51.440;6.914;2023-09-08T12:10:17;28.50;99.90
16198;DHT22;8206;51.440;6.914;2023-09-08T12:12:45;28.50;99.90
16198;DHT22;8206;51.440;6.914;2023-09-08T12:15:29;28.50;99.90
16198;DHT22;8206;51.440;6.914;2023-09-08T12:17:57;28.50;99.90
16198;DHT22;8206;51.440;6.914;2023-09-08T12:20:24;28.50;99.90
16198;DHT22;8206;51.440;6.914;2023-09-08T12:22:51;28.60;99.90
16198;DHT22;8206;51.440;6.914;2023-09-08T12:25:18;28.60;99.90
16198;DHT22;8206;51.440;6.914;2023-09-08T12:27:46;28.60;99.90
16198;DHT22;8206;51.440;6.914;2023-09-08T12:30:21;28.60;99.90
16198;DHT22;8206;51.440;6.914;2023-09-08T12:32:50;28.60;99.90
16198;DHT22;8206;51.440;6.914;2023-09-08T12:35:21;28.70;99.90
16198;DHT22;8206;51.440;6.914;2023-09-08T12:37:56;28.70;99.90
16198;DHT22;8206;51.440;6.914;2023-09-08T12:40:24;28.70;99.90
16198;DHT22;8206;51.440;6.914;2023-09-08T12:42:51;28.70;99.90
16198;DHT22;8206;51.440;6.914;2023-09-08T12:45:19;28.70;99.90
16198;DHT22;8206;51.440;6.914;2023-09-08T12:47:46;28.70;99.90
16198;DHT22;8206;51.440;6.914;2023-09-08T12:50:13;28.70;99.90
16198;DHT22;8206;51.440;6.914;2023-09-08T12:52:40;28.80;99.90
16198;DHT22;8206;51.440;6.914;2023-09-08T12:55:07;28.80;99.90
16198;DHT22;8206;51.440;6.914;2023-09-08T12:57:34;28.80;99.90
16198;DHT22;8206;51.440;6.914;2023-09-08T13:00:02;28.90;99.90
16198;DHT22;8206;51.440;6.914;2023-09-08T13:02:30;28.80;99.90
16198;DHT22;8206;51.440;6.914;2023-09-08T13:04:57;28.90;99.90
16198;DHT22;8206;51.440;6.914;2023-09-08T13:07:23;29.00;99.90
16198;DHT22;8206;51.440;6.914;2023-09-08T13:09:51;29.10;99.90
16198;DHT22;8206;51.440;6.914;2023-09-08T13:12:18;29.10;99.90
16198;DHT22;8206;51.440;6.914;2023-09-08T13:14:44;29.10;99.90
16198;DHT22;8206;51.440;6.914;2023-09-08T13:17:11;29.00;99.90
16198;DHT22;8206;51.440;6.914;2023-09-08T13:19:39;29.00;99.90
16198;DHT22;8206;51.440;6.914;2023-09-08T13:22:07;28.90;99.90
16198;DHT22;8206;51.440;6.914;2023-09-08T13:24:34;29.00;99.90
16198;DHT22;8206;51.440;6.914;2023-09-08T13:27:00;29.00;99.90
16198;DHT22;8206;51.440;6.914;2023-09-08T13:29:27;29.00;99.90
16198;DHT22;8206;51.440;6.914;2023-09-08T13:31:54;28.90;99.90
16198;DHT22;8206;51.440;6.914;2023-09-08T13:34:22;28.90;99.90
16198;DHT22;8206;51.440;6.914;2023-09-08T13:36:50;28.90;99.90
16198;DHT22;8206;51.440;6.914;2023-09-08T13:39:17;28.90;99.90
16198;DHT22;8206;51.440;6.914;2023-09-08T13:41:47;28.90;99.90
16198;DHT22;8206;51.440;6.914;2023-09-08T13:44:16;29.00;99.90
16198;DHT22;8206;51.440;6.914;2023-09-08T13:46:43;29.00;99.90
16198;DHT22;8206;51.440;6.914;2023-09-08T13:49:09;29.00;99.90
16198;DHT22;8206;51.440;6.914;2023-09-08T13:51:36;29.00;99.90
16198;DHT22;8206;51.440;6.914;2023-09-08T13:54:05;29.00;99.90
16198;DHT22;8206;51.440;6.914;2023-09-08T13:56:31;29.00;99.90
16198;DHT22;8206;51.440;6.914;2023-09-08T13:58:58;29.10;99.90
16198;DHT22;8206;51.440;6.914;2023-09-08T14:01:25;29.00;99.90
16198;DHT22;8206;51.440;6.914;2023-09-08T14:03:53;29.10;99.90
16198;DHT22;8206;51.440;6.914;2023-09-08T14:06:21;29.10;99.90
16198;DHT22;8206;51.440;6.914;2023-09-08T14:08:47;29.10;99.90
16198;DHT22;8206;51.440;6.914;2023-09-08T14:11:15;29.10;99.90
16198;DHT22;8206;51.440;6.914;2023-09-08T14:13:42;29.10;99.90
16198;DHT22;8206;51.440;6.914;2023-09-08T14:16:09;29.10;99.90
16198;DHT22;8206;51.440;6.914;2023-09-08T14:18:36;29.10;99.90
16198;DHT22;8206;51.440;6.914;2023-09-08T14:21:03;29.10;99.90
16198;DHT22;8206;51.440;6.914;2023-09-08T14:23:29;29.10;99.90
16198;DHT22;8206;51.440;6.914;2023-09-08T14:25:56;29.10;99.90
16198;DHT22;8206;51.440;6.914;2023-09-08T14:28:24;29.10;99.90
16198;DHT22;8206;51.440;6.914;2023-09-08T14:30:51;29.10;99.90
16198;DHT22;8206;51.440;6.914;2023-09-08T14:33:18;29.00;99.90
16198;DHT22;8206;51.440;6.914;2023-09-08T14:35:45;29.00;99.90
16198;DHT22;8206;51.440;6.914;2023-09-08T14:38:16;29.00;99.90
16198;DHT22;8206;51.440;6.914;2023-09-08T14:40:44;29.00;99.90
16198;DHT22;8206;51.440;6.914;2023-09-08T14:43:11;29.00;99.90
16198;DHT22;8206;51.440;6.914;2023-09-08T14:45:39;29.10;99.90
16198;DHT22;8206;51.440;6.914;2023-09-08T14:48:06;29.10;99.90
16198;DHT22;8206;51.440;6.914;2023-09-08T14:50:33;29.10;99.90
16198;DHT22;8206;51.440;6.914;2023-09-08T14:52:59;29.10;99.90
16198;DHT22;8206;51.440;6.914;2023-09-08T14:55:26;29.20;99.90
16198;DHT22;8206;51.440;6.914;2023-09-08T14:57:53;29.20;99.90
16198;DHT22;8206;51.440;6.914;2023-09-08T15:00:20;29.20;99.90
16198;DHT22;8206;51.440;6.914;2023-09-08T15:02:48;29.10;99.90
16198;DHT22;8206;51.440;6.914;2023-09-08T15:05:15;29.20;99.90
16198;DHT22;8206;51.440;6.914;2023-09-08T15:07:42;29.20;99.90
16198;DHT22;8206;51.440;6.914;2023-09-08T15:10:09;29.10;99.90
16198;DHT22;8206;51.440;6.914;2023-09-08T15:12:36;29.10;99.90
16198;DHT22;8206;51.440;6.914;2023-09-08T15:15:03;29.10;99.90
16198;DHT22;8206;51.440;6.914;2023-09-08T15:17:30;29.10;99.90
16198;DHT22;8206;51.440;6.914;2023-09-08T15:19:58;29.00;99.90
16198;DHT22;8206;51.440;6.914;2023-09-08T15:22:25;29.10;99.90
16198;DHT22;8206;51.440;6.914;2023-09-08T15:24:51;29.10;99.90
16198;DHT22;8206;51.440;6.914;2023-09-08T15:27:18;29.10;99.90
16198;DHT22;8206;51.440;6.914;2023-09-08T15:29:45;29.00;99.90
16198;DHT22;8206;51.440;6.914;2023-09-08T15:32:11;29.00;99.90
16198;DHT22;8206;51.440;6.914;2023-09-08T15:34:38;29.00;99.90
16198;DHT22;8206;51.440;6.914;2023-09-08T15:37:06;29.00;99.90
16198;DHT22;8206;51.440;6.914;2023-09-08T15:39:33;29.10;99.90
16198;DHT22;8206;51.440;6.914;2023-09-08T15:42:00;29.00;99.90
16198;DHT22;8206;51.440;6.914;2023-09-08T15:44:26;29.10;99.90
16198;DHT22;8206;51.440;6.914;2023-09-08T15:46:53;29.10;99.90
16198;DHT22;8206;51.440;6.914;2023-09-08T15:49:19;29.10;99.90
16198;DHT22;8206;51.440;6.914;2023-09-08T15:51:46;29.00;99.90